sensor_id;sensor_type;location;lat;lon;timestamp;temperature;humidity
71142;DHT22;58808;59.366;17.970;2022-12-18T00:02:10;-1.20;99.90
71142;DHT22;58808;59.366;17.970;2022-12-18T00:04:35;-1.20;99.90
71142;DHT22;58808;59.366;17.970;2022-12-18T00:07:01;-1.20;99.90
71142;DHT22;58808;59.366;17.970;2022-12-18T00:09:27;-1.20;99.90
71142;DHT22;58808;59.366;17.970;2022-12-18T00:11:52;-1.10;99.90
71142;DHT22;58808;59.366;17.970;2022-12-18T00:14:18;-1.20;99.90
71142;DHT22;58808;59.366;17.970;2022-12-18T00:16:44;-1.20;99.90
71142;DHT22;58808;59.366;17.970;2022-12-18T00:19:10;-1.10;99.90
71142;DHT22;58808;59.366;17.970;2022-12-18T00:21:36;-1.20;99.90
71142;DHT22;58808;59.366;17.970;2022-12-18T00:24:02;-1.10;99.90
71142;DHT22;58808;59.366;17.970;2022-12-18T00:26:30;-1.10;99.90
71142;DHT22;58808;59.366;17.970;2022-12-18T00:29:02;-1.10;99.90
71142;DHT22;58808;59.366;17.970;2022-12-18T00:31:27;-1.10;99.90
71142;DHT22;58808;59.366;17.970;2022-12-18T00:33:54;-1.10;99.90
71142;DHT22;58808;59.366;17.970;2022-12-18T00:36:23;-1.10;99.90
71142;DHT22;58808;59.366;17.970;2022-12-18T00:38:49;-1.10;99.90
71142;DHT22;58808;59.366;17.970;2022-12-18T00:41:16;-1.10;99.90
71142;DHT22;58808;59.366;17.970;2022-12-18T00:44:02;-1.10;99.90
71142;DHT22;58808;59.366;17.970;2022-12-18T00:46:28;-1.10;99.90
71142;DHT22;58808;59.366;17.970;2022-12-18T00:48:54;-1.10;99.90
71142;DHT22;58808;59.366;17.970;2022-12-18T00:51:20;-1.10;99.90
71142;DHT22;58808;59.366;17.970;2022-12-18T00:53:45;-1.10;99.90
71142;DHT22;58808;59.366;17.970;2022-12-18T00:56:11;-1.10;99.90
71142;DHT22;58808;59.366;17.970;2022-12-18T00:58:36;-1.10;99.90
71142;DHT22;58808;59.366;17.970;2022-12-18T01:01:04;-1.10;99.90
71142;DHT22;58808;59.366;17.970;2022-12-18T01:03:30;-1.10;99.90
71142;DHT22;58808;59.366;17.970;2022-12-18T01:05:56;-1.10;99.90
71142;DHT22;58808;59.366;17.970;2022-12-18T01:08:22;-1.10;99.90
71142;DHT22;58808;59.366;17.970;2022-12-18T01:10:48;-1.10;99.90
71142;DHT22;58808;59.366;17.970;2022-12-18T01:13:14;-1.10;99.90
71142;DHT22;58808;59.366;17.970;2022-12-18T01:15:39;-1.00;99.90
71142;DHT22;58808;59.366;17.970;2022-12-18T01:18:06;-1.10;99.90
71142;DHT22;58808;59.366;17.970;2022-12-18T01:20:31;-1.10;99.90
71142;DHT22;58808;59.366;17.970;2022-12-18T01:22:57;-1.00;99.90
71142;DHT22;58808;59.366;17.970;2022-12-18T01:25:23;-1.10;99.90
71142;DHT22;58808;59.366;17.970;2022-12-18T01:27:48;-1.10;99.90
71142;DHT22;58808;59.366;17.970;2022-12-18T01:30:14;-1.10;99.90
71142;DHT22;58808;59.366;17.970;2022-12-18T01:32:40;-1.10;99.90
71142;DHT22;58808;59.366;17.970;2022-12-18T01:35:06;-1.10;99.90
71142;DHT22;58808;59.366;17.970;2022-12-18T01:37:32;-1.10;99.90
71142;DHT22;58808;59.366;17.970;2022-12-18T01:39:58;-1.00;99.90
71142;DHT22;58808;59.366;17.970;2022-12-18T01:42:24;-1.00;99.90
71142;DHT22;58808;59.366;17.970;2022-12-18T01:47:43;-1.00;99.90
71142;DHT22;58808;59.366;17.970;2022-12-18T01:50:12;-1.00;99.90
71142;DHT22;58808;59.366;17.970;2022-12-18T01:52:43;-1.00;99.90
71142;DHT22;58808;59.366;17.970;2022-12-18T01:55:11;-1.00;99.90
71142;DHT22;58808;59.366;17.970;2022-12-18T01:57:38;-0.90;99.90
71142;DHT22;58808;59.366;17.970;2022-12-18T02:00:14;-1.00;99.90
71142;DHT22;58808;59.366;17.970;2022-12-18T02:02:42;-0.90;99.90
71142;DHT22;58808;59.366;17.970;2022-12-18T02:05:09;-0.90;99.90
71142;DHT22;58808;59.366;17.970;2022-12-18T02:10:59;-0.90;99.90
71142;DHT22;58808;59.366;17.970;2022-12-18T02:13:44;-0.90;99.90
71142;DHT22;58808;59.366;17.970;2022-12-18T02:18:49;-0.90;99.90
71142;DHT22;58808;59.366;17.970;2022-12-18T02:21:45;-0.80;99.90
71142;DHT22;58808;59.366;17.970;2022-12-18T02:26:52;-0.80;99.90
71142;DHT22;58808;59.366;17.970;2022-12-18T02:32:13;-0.80;99.90
71142;DHT22;58808;59.366;17.970;2022-12-18T02:34:40;-0.80;99.90
71142;DHT22;58808;59.366;17.970;2022-12-18T02:37:10;-0.80;99.90
71142;DHT22;58808;59.366;17.970;2022-12-18T02:39:39;-0.80;99.90
71142;DHT22;58808;59.366;17.970;2022-12-18T02:42:06;-0.80;99.90
71142;DHT22;58808;59.366;17.970;2022-12-18T02:44:41;-0.80;99.90
71142;DHT22;58808;59.366;17.970;2022-12-18T02:47:10;-0.80;99.90
71142;DHT22;58808;59.366;17.970;2022-12-18T03:06:01;-0.80;99.90
71142;DHT22;58808;59.366;17.970;2022-12-18T03:08:29;-0.80;99.90
71142;DHT22;58808;59.366;17.970;2022-12-18T03:11:06;-0.80;99.90
71142;DHT22;58808;59.366;17.970;2022-12-18T03:13:47;-0.80;99.90
71142;DHT22;58808;59.366;17.970;2022-12-18T03:16:20;-0.80;99.90
71142;DHT22;58808;59.366;17.970;2022-12-18T03:18:56;-0.80;99.90
71142;DHT22;58808;59.366;17.970;2022-12-18T03:21:32;-0.90;99.90
71142;DHT22;58808;59.366;17.970;2022-12-18T03:23:59;-0.90;99.90
71142;DHT22;58808;59.366;17.970;2022-12-18T03:26:27;-0.90;99.90
71142;DHT22;58808;59.366;17.970;2022-12-18T03:29:06;-0.90;99.90
71142;DHT22;58808;59.366;17.970;2022-12-18T03:31:33;-0.90;99.90
71142;DHT22;58808;59.366;17.970;2022-12-18T03:34:01;-0.90;99.90
71142;DHT22;58808;59.366;17.970;2022-12-18T03:36:29;-0.90;99.90
71142;DHT22;58808;59.366;17.970;2022-12-18T03:38:56;-0.90;99.90
71142;DHT22;58808;59.366;17.970;2022-12-18T03:44:14;-0.90;99.90
71142;DHT22;58808;59.366;17.970;2022-12-18T03:47:08;-0.90;99.90
71142;DHT22;58808;59.366;17.970;2022-12-18T03:49:35;-0.90;99.90
71142;DHT22;58808;59.366;17.970;2022-12-18T03:54:45;-0.90;99.90
71142;DHT22;58808;59.366;17.970;2022-12-18T03:57:18;-0.90;99.90
71142;DHT22;58808;59.366;17.970;2022-12-18T03:59:46;-0.90;99.90
71142;DHT22;58808;59.366;17.970;2022-12-18T04:02:15;-0.90;99.90
71142;DHT22;58808;59.366;17.970;2022-12-18T04:04:42;-1.00;99.90
71142;DHT22;58808;59.366;17.970;2022-12-18T04:07:09;-1.00;99.90
71142;DHT22;58808;59.366;17.970;2022-12-18T04:09:36;-1.00;99.90
71142;DHT22;58808;59.366;17.970;2022-12-18T04:12:04;-1.00;99.90
71142;DHT22;58808;59.366;17.970;2022-12-18T04:14:30;-1.00;99.90
71142;DHT22;58808;59.366;17.970;2022-12-18T04:16:55;-1.00;99.90
71142;DHT22;58808;59.366;17.970;2022-12-18T04:19:21;-1.00;99.90
71142;DHT22;58808;59.366;17.970;2022-12-18T04:21:47;-1.00;99.90
71142;DHT22;58808;59.366;17.970;2022-12-18T04:24:12;-1.00;99.90
71142;DHT22;58808;59.366;17.970;2022-12-18T04:26:38;-1.00;99.90
71142;DHT22;58808;59.366;17.970;2022-12-18T04:29:03;-1.00;99.90
71142;DHT22;58808;59.366;17.970;2022-12-18T04:31:29;-1.00;99.90
71142;DHT22;58808;59.366;17.970;2022-12-18T04:33:55;-1.00;99.90
71142;DHT22;58808;59.366;17.970;2022-12-18T04:36:20;-1.00;99.90
71142;DHT22;58808;59.366;17.970;2022-12-18T04:38:46;-1.00;99.90
71142;DHT22;58808;59.366;17.970;2022-12-18T04:41:12;-1.00;99.90
71142;DHT22;58808;59.366;17.970;2022-12-18T04:43:37;-1.00;99.90
71142;DHT22;58808;59.366;17.970;2022-12-18T04:46:07;-1.00;99.90
71142;DHT22;58808;59.366;17.970;2022-12-18T04:48:33;-1.00;99.90
71142;DHT22;58808;59.366;17.970;2022-12-18T04:50:59;-1.00;99.90
71142;DHT22;58808;59.366;17.970;2022-12-18T04:53:25;-1.00;99.90
71142;DHT22;58808;59.366;17.970;2022-12-18T04:55:51;-1.00;99.90
71142;DHT22;58808;59.366;17.970;2022-12-18T04:58:26;-1.00;99.90
71142;DHT22;58808;59.366;17.970;2022-12-18T05:00:52;-1.00;99.90
71142;DHT22;58808;59.366;17.970;2022-12-18T05:03:18;-1.00;99.90
71142;DHT22;58808;59.366;17.970;2022-12-18T05:05:43;-1.00;99.90
71142;DHT22;58808;59.366;17.970;2022-12-18T05:08:09;-1.00;99.90
71142;DHT22;58808;59.366;17.970;2022-12-18T05:10:35;-1.00;99.90
71142;DHT22;58808;59.366;17.970;2022-12-18T05:13:00;-1.00;99.90
71142;DHT22;58808;59.366;17.970;2022-12-18T05:15:30;-1.00;99.90
71142;DHT22;58808;59.366;17.970;2022-12-18T05:17:58;-1.10;99.90
71142;DHT22;58808;59.366;17.970;2022-12-18T05:20:23;-1.00;99.90
71142;DHT22;58808;59.366;17.970;2022-12-18T05:22:50;-1.00;99.90
71142;DHT22;58808;59.366;17.970;2022-12-18T05:25:16;-1.00;99.90
71142;DHT22;58808;59.366;17.970;2022-12-18T05:27:42;-1.00;99.90
71142;DHT22;58808;59.366;17.970;2022-12-18T05:30:08;-1.00;99.90
71142;DHT22;58808;59.366;17.970;2022-12-18T05:32:34;-1.00;99.90
71142;DHT22;58808;59.366;17.970;2022-12-18T05:35:00;-1.00;99.90
71142;DHT22;58808;59.366;17.970;2022-12-18T05:37:26;-0.90;99.90
71142;DHT22;58808;59.366;17.970;2022-12-18T05:39:51;-1.00;99.90
71142;DHT22;58808;59.366;17.970;2022-12-18T05:42:17;-0.90;99.90
71142;DHT22;58808;59.366;17.970;2022-12-18T05:44:43;-0.90;99.90
71142;DHT22;58808;59.366;17.970;2022-12-18T05:47:09;-0.90;99.90
71142;DHT22;58808;59.366;17.970;2022-12-18T05:49:35;-0.80;99.90
71142;DHT22;58808;59.366;17.970;2022-12-18T05:52:01;-0.80;99.90
71142;DHT22;58808;59.366;17.970;2022-12-18T05:54:27;-0.80;99.90
71142;DHT22;58808;59.366;17.970;2022-12-18T05:56:53;-0.80;99.90
71142;DHT22;58808;59.366;17.970;2022-12-18T05:59:19;-0.80;99.90
71142;DHT22;58808;59.366;17.970;2022-12-18T06:01:45;-0.80;99.90
71142;DHT22;58808;59.366;17.970;2022-12-18T06:04:11;-0.70;99.90
71142;DHT22;58808;59.366;17.970;2022-12-18T06:06:37;-0.70;99.90
71142;DHT22;58808;59.366;17.970;2022-12-18T06:09:04;-0.70;99.90
71142;DHT22;58808;59.366;17.970;2022-12-18T06:11:35;-0.70;99.90
71142;DHT22;58808;59.366;17.970;2022-12-18T06:14:03;-0.80;99.90
71142;DHT22;58808;59.366;17.970;2022-12-18T06:16:30;-0.80;99.90
71142;DHT22;58808;59.366;17.970;2022-12-18T06:19:00;-0.80;99.90
71142;DHT22;58808;59.366;17.970;2022-12-18T06:21:26;-0.70;99.90
71142;DHT22;58808;59.366;17.970;2022-12-18T06:23:52;-0.70;99.90
71142;DHT22;58808;59.366;17.970;2022-12-18T06:26:18;-0.70;99.90
71142;DHT22;58808;59.366;17.970;2022-12-18T06:28:44;-0.70;99.90
71142;DHT22;58808;59.366;17.970;2022-12-18T06:31:10;-0.70;99.90
71142;DHT22;58808;59.366;17.970;2022-12-18T06:33:37;-0.70;99.90
71142;DHT22;58808;59.366;17.970;2022-12-18T06:38:31;-0.70;99.90
71142;DHT22;58808;59.366;17.970;2022-12-18T06:40:57;-0.70;99.90
71142;DHT22;58808;59.366;17.970;2022-12-18T06:43:22;-0.70;99.90
71142;DHT22;58808;59.366;17.970;2022-12-18T06:45:48;-0.70;99.90
71142;DHT22;58808;59.366;17.970;2022-12-18T06:48:18;-0.70;99.90
71142;DHT22;58808;59.366;17.970;2022-12-18T06:50:45;-0.70;99.90
71142;DHT22;58808;59.366;17.970;2022-12-18T06:53:11;-0.70;99.90
71142;DHT22;58808;59.366;17.970;2022-12-18T06:55:37;-0.70;99.90
71142;DHT22;58808;59.366;17.970;2022-12-18T06:58:03;-0.70;99.90
71142;DHT22;58808;59.366;17.970;2022-12-18T07:00:28;-0.70;99.90
71142;DHT22;58808;59.366;17.970;2022-12-18T07:02:54;-0.70;99.90
71142;DHT22;58808;59.366;17.970;2022-12-18T07:05:20;-0.70;99.90
71142;DHT22;58808;59.366;17.970;2022-12-18T07:07:46;-0.80;99.90
71142;DHT22;58808;59.366;17.970;2022-12-18T07:10:11;-0.70;99.90
71142;DHT22;58808;59.366;17.970;2022-12-18T07:12:37;-0.70;99.90
71142;DHT22;58808;59.366;17.970;2022-12-18T07:15:03;-0.70;99.90
71142;DHT22;58808;59.366;17.970;2022-12-18T07:17:29;-0.70;99.90
71142;DHT22;58808;59.366;17.970;2022-12-18T07:19:55;-0.70;99.90
71142;DHT22;58808;59.366;17.970;2022-12-18T07:22:21;-0.60;99.90
71142;DHT22;58808;59.366;17.970;2022-12-18T07:24:46;-0.60;99.90
71142;DHT22;58808;59.366;17.970;2022-12-18T07:27:12;-0.60;99.90
71142;DHT22;58808;59.366;17.970;2022-12-18T07:29:38;-0.60;99.90
71142;DHT22;58808;59.366;17.970;2022-12-18T07:32:03;-0.60;99.90
71142;DHT22;58808;59.366;17.970;2022-12-18T07:34:29;-0.50;99.90
71142;DHT22;58808;59.366;17.970;2022-12-18T07:36:55;-0.50;99.90
71142;DHT22;58808;59.366;17.970;2022-12-18T07:39:20;-0.50;99.90
71142;DHT22;58808;59.366;17.970;2022-12-18T07:41:46;-0.50;99.90
71142;DHT22;58808;59.366;17.970;2022-12-18T07:44:32;-0.40;99.90
71142;DHT22;58808;59.366;17.970;2022-12-18T07:46:57;-0.40;99.90
71142;DHT22;58808;59.366;17.970;2022-12-18T07:49:23;-0.40;99.90
71142;DHT22;58808;59.366;17.970;2022-12-18T07:51:49;-0.30;99.90
71142;DHT22;58808;59.366;17.970;2022-12-18T07:54:14;-0.30;99.90
71142;DHT22;58808;59.366;17.970;2022-12-18T07:56:40;-0.30;99.90
71142;DHT22;58808;59.366;17.970;2022-12-18T07:59:06;-0.30;99.90
71142;DHT22;58808;59.366;17.970;2022-12-18T08:01:33;-0.30;99.90
71142;DHT22;58808;59.366;17.970;2022-12-18T08:03:59;-0.20;99.90
71142;DHT22;58808;59.366;17.970;2022-12-18T08:06:25;-0.20;99.90
71142;DHT22;58808;59.366;17.970;2022-12-18T08:08:55;-0.20;99.90
71142;DHT22;58808;59.366;17.970;2022-12-18T08:11:22;-0.20;99.90
71142;DHT22;58808;59.366;17.970;2022-12-18T08:13:48;-0.20;99.90
71142;DHT22;58808;59.366;17.970;2022-12-18T08:16:14;-0.10;99.90
71142;DHT22;58808;59.366;17.970;2022-12-18T08:18:40;-0.10;99.90
71142;DHT22;58808;59.366;17.970;2022-12-18T08:21:14;0.00;99.90
71142;DHT22;58808;59.366;17.970;2022-12-18T08:23:40;0.00;99.90
71142;DHT22;58808;59.366;17.970;2022-12-18T08:26:06;0.00;99.90
71142;DHT22;58808;59.366;17.970;2022-12-18T08:28:33;0.00;99.90
71142;DHT22;58808;59.366;17.970;2022-12-18T08:30:58;0.00;99.90
71142;DHT22;58808;59.366;17.970;2022-12-18T08:33:24;0.10;99.90
71142;DHT22;58808;59.366;17.970;2022-12-18T08:35:52;0.10;99.90
71142;DHT22;58808;59.366;17.970;2022-12-18T08:38:17;0.20;99.90
71142;DHT22;58808;59.366;17.970;2022-12-18T08:40:43;0.20;99.90
71142;DHT22;58808;59.366;17.970;2022-12-18T08:43:12;0.20;99.90
71142;DHT22;58808;59.366;17.970;2022-12-18T08:45:56;0.20;99.90
71142;DHT22;58808;59.366;17.970;2022-12-18T08:48:22;0.30;99.90
71142;DHT22;58808;59.366;17.970;2022-12-18T08:50:55;0.30;99.90
71142;DHT22;58808;59.366;17.970;2022-12-18T08:53:21;0.30;99.90
71142;DHT22;58808;59.366;17.970;2022-12-18T08:55:47;0.40;99.90
71142;DHT22;58808;59.366;17.970;2022-12-18T08:58:12;0.40;99.90
71142;DHT22;58808;59.366;17.970;2022-12-18T09:00:38;0.40;99.90
71142;DHT22;58808;59.366;17.970;2022-12-18T09:03:04;0.40;99.90
71142;DHT22;58808;59.366;17.970;2022-12-18T09:05:30;0.50;99.90
71142;DHT22;58808;59.366;17.970;2022-12-18T09:07:56;0.50;99.90
71142;DHT22;58808;59.366;17.970;2022-12-18T09:10:21;0.50;99.90
71142;DHT22;58808;59.366;17.970;2022-12-18T09:12:47;0.50;99.90
71142;DHT22;58808;59.366;17.970;2022-12-18T09:15:13;0.60;99.90
71142;DHT22;58808;59.366;17.970;2022-12-18T09:17:38;0.60;99.90
71142;DHT22;58808;59.366;17.970;2022-12-18T09:20:05;0.60;99.90
71142;DHT22;58808;59.366;17.970;2022-12-18T09:22:31;0.70;99.90
71142;DHT22;58808;59.366;17.970;2022-12-18T09:24:56;0.80;99.90
71142;DHT22;58808;59.366;17.970;2022-12-18T09:27:22;0.80;99.90
71142;DHT22;58808;59.366;17.970;2022-12-18T09:29:48;0.80;99.90
71142;DHT22;58808;59.366;17.970;2022-12-18T09:32:13;0.80;99.90
71142;DHT22;58808;59.366;17.970;2022-12-18T09:34:39;0.80;99.90
71142;DHT22;58808;59.366;17.970;2022-12-18T09:37:05;0.80;99.90
71142;DHT22;58808;59.366;17.970;2022-12-18T09:39:31;0.80;99.90
71142;DHT22;58808;59.366;17.970;2022-12-18T09:41:58;0.80;99.90
71142;DHT22;58808;59.366;17.970;2022-12-18T09:44:40;0.80;99.90
71142;DHT22;58808;59.366;17.970;2022-12-18T09:47:17;0.90;99.90
71142;DHT22;58808;59.366;17.970;2022-12-18T09:49:46;1.00;99.90
71142;DHT22;58808;59.366;17.970;2022-12-18T09:52:23;1.00;99.90
71142;DHT22;58808;59.366;17.970;2022-12-18T09:55:44;1.10;99.90
71142;DHT22;58808;59.366;17.970;2022-12-18T09:57:49;1.10;99.90
71142;DHT22;58808;59.366;17.970;2022-12-18T10:00:21;1.10;99.90
71142;DHT22;58808;59.366;17.970;2022-12-18T10:02:48;1.20;99.90
71142;DHT22;58808;59.366;17.970;2022-12-18T10:05:24;1.20;99.90
71142;DHT22;58808;59.366;17.970;2022-12-18T10:08:18;1.20;99.90
71142;DHT22;58808;59.366;17.970;2022-12-18T10:13:44;1.20;99.90
71142;DHT22;58808;59.366;17.970;2022-12-18T10:16:36;1.30;99.90
71142;DHT22;58808;59.366;17.970;2022-12-18T10:27:55;1.40;99.90
71142;DHT22;58808;59.366;17.970;2022-12-18T10:30:23;1.50;99.90
71142;DHT22;58808;59.366;17.970;2022-12-18T10:32:49;1.50;99.90
71142;DHT22;58808;59.366;17.970;2022-12-18T10:35:22;1.50;99.90
71142;DHT22;58808;59.366;17.970;2022-12-18T10:38:00;1.50;99.90
71142;DHT22;58808;59.366;17.970;2022-12-18T10:40:26;1.40;99.90
71142;DHT22;58808;59.366;17.970;2022-12-18T10:43:12;1.50;99.90
71142;DHT22;58808;59.366;17.970;2022-12-18T10:45:39;1.50;99.90
71142;DHT22;58808;59.366;17.970;2022-12-18T10:48:17;1.50;99.90
71142;DHT22;58808;59.366;17.970;2022-12-18T10:50:47;1.50;99.90
71142;DHT22;58808;59.366;17.970;2022-12-18T10:53:24;1.40;99.90
71142;DHT22;58808;59.366;17.970;2022-12-18T10:55:52;1.40;99.90
71142;DHT22;58808;59.366;17.970;2022-12-18T11:01:10;1.60;99.90
71142;DHT22;58808;59.366;17.970;2022-12-18T11:03:58;1.60;99.90
71142;DHT22;58808;59.366;17.970;2022-12-18T11:06:25;1.60;99.90
71142;DHT22;58808;59.366;17.970;2022-12-18T11:11:27;1.60;99.90
71142;DHT22;58808;59.366;17.970;2022-12-18T11:16:20;1.60;99.90
71142;DHT22;58808;59.366;17.970;2022-12-18T11:18:45;1.60;99.90
71142;DHT22;58808;59.366;17.970;2022-12-18T11:21:12;1.60;99.90
71142;DHT22;58808;59.366;17.970;2022-12-18T11:23:52;1.60;99.90
71142;DHT22;58808;59.366;17.970;2022-12-18T11:26:18;1.60;99.90
71142;DHT22;58808;59.366;17.970;2022-12-18T11:28:52;1.60;99.90
71142;DHT22;58808;59.366;17.970;2022-12-18T11:31:32;1.60;99.90
71142;DHT22;58808;59.366;17.970;2022-12-18T11:34:00;1.60;99.90
71142;DHT22;58808;59.366;17.970;2022-12-18T11:36:31;1.60;99.90
71142;DHT22;58808;59.366;17.970;2022-12-18T11:39:00;1.60;99.90
71142;DHT22;58808;59.366;17.970;2022-12-18T11:41:34;1.60;99.90
71142;DHT22;58808;59.366;17.970;2022-12-18T11:44:26;1.60;99.90
71142;DHT22;58808;59.366;17.970;2022-12-18T11:49:49;1.60;99.90
71142;DHT22;58808;59.366;17.970;2022-12-18T11:52:31;1.60;99.90
71142;DHT22;58808;59.366;17.970;2022-12-18T11:55:01;1.60;99.90
71142;DHT22;58808;59.366;17.970;2022-12-18T11:57:36;1.70;99.90
71142;DHT22;58808;59.366;17.970;2022-12-18T12:08:58;1.80;99.90
71142;DHT22;58808;59.366;17.970;2022-12-18T12:20:16;1.80;99.90
71142;DHT22;58808;59.366;17.970;2022-12-18T12:39:29;2.00;99.90
71142;DHT22;58808;59.366;17.970;2022-12-18T12:41:56;2.10;99.90
71142;DHT22;58808;59.366;17.970;2022-12-18T12:44:42;2.10;99.90
71142;DHT22;58808;59.366;17.970;2022-12-18T12:47:16;2.10;99.90
71142;DHT22;58808;59.366;17.970;2022-12-18T12:49:44;2.10;99.90
71142;DHT22;58808;59.366;17.970;2022-12-18T12:54:48;2.20;99.90
71142;DHT22;58808;59.366;17.970;2022-12-18T13:00:03;2.20;99.90
71142;DHT22;58808;59.366;17.970;2022-12-18T13:02:52;2.20;99.90
71142;DHT22;58808;59.366;17.970;2022-12-18T13:05:32;2.30;99.90
71142;DHT22;58808;59.366;17.970;2022-12-18T13:08:10;2.30;99.90
71142;DHT22;58808;59.366;17.970;2022-12-18T13:10:41;2.40;99.90
71142;DHT22;58808;59.366;17.970;2022-12-18T13:13:14;2.40;99.90
71142;DHT22;58808;59.366;17.970;2022-12-18T13:15:47;2.40;99.90
71142;DHT22;58808;59.366;17.970;2022-12-18T13:18:24;2.50;99.90
71142;DHT22;58808;59.366;17.970;2022-12-18T13:21:44;2.50;99.90
71142;DHT22;58808;59.366;17.970;2022-12-18T13:23:50;2.50;99.90
71142;DHT22;58808;59.366;17.970;2022-12-18T13:34:16;2.50;99.90
71142;DHT22;58808;59.366;17.970;2022-12-18T13:36:43;2.60;99.90
71142;DHT22;58808;59.366;17.970;2022-12-18T13:41:41;2.60;99.90
71142;DHT22;58808;59.366;17.970;2022-12-18T13:46:57;2.60;99.90
71142;DHT22;58808;59.366;17.970;2022-12-18T13:51:54;2.60;99.90
71142;DHT22;58808;59.366;17.970;2022-12-18T13:54:34;2.60;99.90
71142;DHT22;58808;59.366;17.970;2022-12-18T13:57:02;2.60;99.90
71142;DHT22;58808;59.366;17.970;2022-12-18T13:59:36;2.60;99.90
71142;DHT22;58808;59.366;17.970;2022-12-18T14:02:22;2.60;99.90
71142;DHT22;58808;59.366;17.970;2022-12-18T14:04:50;2.70;99.90
71142;DHT22;58808;59.366;17.970;2022-12-18T14:07:23;2.70;99.90
71142;DHT22;58808;59.366;17.970;2022-12-18T14:09:57;2.70;99.90
71142;DHT22;58808;59.366;17.970;2022-12-18T14:12:28;2.70;99.90
71142;DHT22;58808;59.366;17.970;2022-12-18T14:15:25;2.70;99.90
71142;DHT22;58808;59.366;17.970;2022-12-18T14:17:59;2.70;99.90
71142;DHT22;58808;59.366;17.970;2022-12-18T14:20:29;2.70;99.90
71142;DHT22;58808;59.366;17.970;2022-12-18T14:22:56;2.80;99.90
71142;DHT22;58808;59.366;17.970;2022-12-18T14:25:25;2.70;99.90
71142;DHT22;58808;59.366;17.970;2022-12-18T14:30:36;2.80;99.90
71142;DHT22;58808;59.366;17.970;2022-12-18T14:33:13;2.80;99.90
71142;DHT22;58808;59.366;17.970;2022-12-18T14:35:56;2.80;99.90
71142;DHT22;58808;59.366;17.970;2022-12-18T14:38:28;2.80;99.90
71142;DHT22;58808;59.366;17.970;2022-12-18T14:43:33;2.80;99.90
71142;DHT22;58808;59.366;17.970;2022-12-18T14:46:00;2.70;99.90
71142;DHT22;58808;59.366;17.970;2022-12-18T14:51:06;2.70;99.90
71142;DHT22;58808;59.366;17.970;2022-12-18T14:53:47;2.70;99.90
71142;DHT22;58808;59.366;17.970;2022-12-18T14:56:17;2.70;99.90
71142;DHT22;58808;59.366;17.970;2022-12-18T14:58:48;2.70;99.90
71142;DHT22;58808;59.366;17.970;2022-12-18T15:01:22;2.70;99.90
71142;DHT22;58808;59.366;17.970;2022-12-18T15:03:48;2.70;99.90
71142;DHT22;58808;59.366;17.970;2022-12-18T15:06:27;2.70;99.90
71142;DHT22;58808;59.366;17.970;2022-12-18T15:08:54;2.70;99.90
71142;DHT22;58808;59.366;17.970;2022-12-18T15:11:44;2.70;99.90
71142;DHT22;58808;59.366;17.970;2022-12-18T15:14:45;2.70;99.90
71142;DHT22;58808;59.366;17.970;2022-12-18T15:19:43;2.80;99.90
71142;DHT22;58808;59.366;17.970;2022-12-18T15:22:36;2.80;99.90
71142;DHT22;58808;59.366;17.970;2022-12-18T15:25:03;2.80;99.90
71142;DHT22;58808;59.366;17.970;2022-12-18T15:27:46;2.80;99.90
71142;DHT22;58808;59.366;17.970;2022-12-18T15:30:18;2.90;99.90
71142;DHT22;58808;59.366;17.970;2022-12-18T15:32:45;2.90;99.90
71142;DHT22;58808;59.366;17.970;2022-12-18T15:37:42;2.90;99.90
71142;DHT22;58808;59.366;17.970;2022-12-18T15:40:15;3.00;99.90
71142;DHT22;58808;59.366;17.970;2022-12-18T15:42:42;3.00;99.90
71142;DHT22;58808;59.366;17.970;2022-12-18T15:45:27;3.00;99.90
71142;DHT22;58808;59.366;17.970;2022-12-18T15:47:53;3.00;99.90
71142;DHT22;58808;59.366;17.970;2022-12-18T15:50:18;3.00;99.90
71142;DHT22;58808;59.366;17.970;2022-12-18T15:52:47;3.00;99.90
71142;DHT22;58808;59.366;17.970;2022-12-18T15:55:21;3.00;99.90
71142;DHT22;58808;59.366;17.970;2022-12-18T15:58:07;3.00;99.90
71142;DHT22;58808;59.366;17.970;2022-12-18T16:00:37;3.00;99.90
71142;DHT22;58808;59.366;17.970;2022-12-18T16:03:04;3.00;99.90
71142;DHT22;58808;59.366;17.970;2022-12-18T16:05:30;3.00;99.90
71142;DHT22;58808;59.366;17.970;2022-12-18T16:07:57;3.00;99.90
71142;DHT22;58808;59.366;17.970;2022-12-18T16:10:25;3.00;99.90
71142;DHT22;58808;59.366;17.970;2022-12-18T16:12:51;3.00;99.90
71142;DHT22;58808;59.366;17.970;2022-12-18T16:15:17;3.10;99.90
71142;DHT22;58808;59.366;17.970;2022-12-18T16:17:44;3.10;99.90
71142;DHT22;58808;59.366;17.970;2022-12-18T16:20:17;3.00;99.90
71142;DHT22;58808;59.366;17.970;2022-12-18T16:22:45;3.00;99.90
71142;DHT22;58808;59.366;17.970;2022-12-18T16:25:23;3.00;99.90
71142;DHT22;58808;59.366;17.970;2022-12-18T16:27:50;3.00;99.90
71142;DHT22;58808;59.366;17.970;2022-12-18T16:30:18;3.10;99.90
71142;DHT22;58808;59.366;17.970;2022-12-18T16:32:44;3.00;99.90
71142;DHT22;58808;59.366;17.970;2022-12-18T16:35:11;3.00;99.90
71142;DHT22;58808;59.366;17.970;2022-12-18T16:37:38;3.00;99.90
71142;DHT22;58808;59.366;17.970;2022-12-18T16:40:04;3.00;99.90
71142;DHT22;58808;59.366;17.970;2022-12-18T16:42:30;3.00;99.90
71142;DHT22;58808;59.366;17.970;2022-12-18T16:44:55;3.00;99.90
71142;DHT22;58808;59.366;17.970;2022-12-18T16:47:21;3.00;99.90
71142;DHT22;58808;59.366;17.970;2022-12-18T16:49:47;3.00;99.90
71142;DHT22;58808;59.366;17.970;2022-12-18T16:52:16;3.00;99.90
71142;DHT22;58808;59.366;17.970;2022-12-18T16:54:41;2.90;99.90
71142;DHT22;58808;59.366;17.970;2022-12-18T16:57:10;2.90;99.90
71142;DHT22;58808;59.366;17.970;2022-12-18T16:59:37;3.00;99.90
71142;DHT22;58808;59.366;17.970;2022-12-18T17:02:03;3.00;99.90
71142;DHT22;58808;59.366;17.970;2022-12-18T17:04:28;2.90;99.90
71142;DHT22;58808;59.366;17.970;2022-12-18T17:06:54;2.90;99.90
71142;DHT22;58808;59.366;17.970;2022-12-18T17:09:20;3.00;99.90
71142;DHT22;58808;59.366;17.970;2022-12-18T17:11:53;2.90;99.90
71142;DHT22;58808;59.366;17.970;2022-12-18T17:14:21;2.90;99.90
71142;DHT22;58808;59.366;17.970;2022-12-18T17:16:47;2.90;99.90
71142;DHT22;58808;59.366;17.970;2022-12-18T17:19:13;2.90;99.90
71142;DHT22;58808;59.366;17.970;2022-12-18T17:21:40;2.90;99.90
71142;DHT22;58808;59.366;17.970;2022-12-18T17:24:06;2.80;99.90
71142;DHT22;58808;59.366;17.970;2022-12-18T17:26:31;2.80;99.90
71142;DHT22;58808;59.366;17.970;2022-12-18T17:28:58;2.90;99.90
71142;DHT22;58808;59.366;17.970;2022-12-18T17:31:26;2.90;99.90
71142;DHT22;58808;59.366;17.970;2022-12-18T17:33:52;2.90;99.90
71142;DHT22;58808;59.366;17.970;2022-12-18T17:36:19;2.80;99.90
71142;DHT22;58808;59.366;17.970;2022-12-18T17:38:56;2.80;99.90
71142;DHT22;58808;59.366;17.970;2022-12-18T17:41:22;2.80;99.90
71142;DHT22;58808;59.366;17.970;2022-12-18T17:44:00;2.80;99.90
71142;DHT22;58808;59.366;17.970;2022-12-18T17:46:27;2.80;99.90